createdAt,value
2018-06-25T00:00:46.787Z,12.07
2018-06-25T00:03:16.502Z,12.13
2018-06-25T00:05:46.217Z,10.90
2018-06-25T00:08:15.894Z,12.27
2018-06-25T00:10:45.566Z,18.40
2018-06-25T00:13:15.158Z,14.47
2018-06-25T00:15:45.293Z,18.23
2018-06-25T00:18:15.576Z,16.30
2018-06-25T00:20:46.325Z,13.90
2018-06-25T00:23:16.014Z,15.70
2018-06-25T00:25:45.682Z,16.90
2018-06-25T00:28:15.430Z,18.90
2018-06-25T00:30:45.221Z,14.07
2018-06-25T00:33:14.868Z,16.10
2018-06-25T00:35:44.555Z,19.23
2018-06-25T00:38:14.216Z,17.07
2018-06-25T00:40:43.774Z,18.60
2018-06-25T00:43:13.599Z,19.10
2018-06-25T00:45:43.402Z,13.63
2018-06-25T00:48:14.492Z,21.43
2018-06-25T00:50:46.074Z,20.37
2018-06-25T00:53:17.051Z,21.73
2018-06-25T00:55:46.702Z,23.73
2018-06-25T00:58:16.401Z,19.00
2018-06-25T01:00:45.992Z,20.47
2018-06-25T01:03:15.715Z,18.17
2018-06-25T01:05:45.516Z,21.93
2018-06-25T01:08:15.516Z,23.60
2018-06-25T01:10:45.065Z,20.63
2018-06-25T01:13:15.814Z,20.20
2018-06-25T01:15:45.602Z,16.07
2018-06-25T01:18:15.339Z,16.60
2018-06-25T01:20:44.998Z,19.73
2018-06-25T01:23:14.574Z,20.20
2018-06-25T01:25:44.210Z,25.73
2018-06-25T01:28:13.888Z,18.03
2018-06-25T01:30:43.497Z,25.20
2018-06-25T01:33:13.114Z,17.90
2018-06-25T01:35:42.775Z,17.47
2018-06-25T01:38:12.383Z,21.73
2018-06-25T01:40:41.876Z,22.00
2018-06-25T01:43:11.714Z,22.80
2018-06-25T01:45:42.332Z,24.67
2018-06-25T01:48:12.949Z,19.83
2018-06-25T01:50:42.582Z,20.40
2018-06-25T01:53:12.562Z,18.00
2018-06-25T01:55:42.251Z,24.80
2018-06-25T02:16:12.069Z,20.10
2018-06-25T02:18:41.837Z,20.83
2018-06-25T02:21:11.798Z,21.40
2018-06-25T02:23:41.615Z,19.10
2018-06-25T02:26:11.277Z,19.03
2018-06-25T02:28:40.903Z,21.97
2018-06-25T02:31:10.582Z,19.80
2018-06-25T02:33:40.399Z,18.20
2018-06-25T02:36:09.950Z,26.60
2018-06-25T02:38:39.667Z,22.67
2018-06-25T02:41:09.197Z,21.87
2018-06-25T02:43:38.972Z,23.90
2018-06-25T02:46:08.602Z,22.47
2018-06-25T02:48:38.600Z,24.40
2018-06-25T02:51:08.801Z,25.37
2018-06-25T02:53:38.433Z,25.83
2018-06-25T02:56:08.121Z,23.80
2018-06-25T02:58:38.220Z,22.13
2018-06-25T03:01:19.103Z,22.10
2018-06-25T03:03:48.921Z,19.07
2018-06-25T03:06:18.672Z,24.97
2018-06-25T03:08:48.229Z,30.53
2018-06-25T03:11:18.180Z,25.30
2018-06-25T03:13:47.671Z,19.60
2018-06-25T03:16:17.254Z,16.90
2018-06-25T03:18:47.037Z,18.33
2018-06-25T03:21:17.242Z,16.13
2018-06-25T03:23:46.902Z,18.53
2018-06-25T03:26:16.740Z,19.07
2018-06-25T03:28:46.435Z,21.30
2018-06-25T03:31:16.074Z,20.17
2018-06-25T03:33:45.923Z,18.03
2018-06-25T03:36:15.793Z,21.73
2018-06-25T03:38:45.587Z,20.43
2018-06-25T03:41:15.316Z,18.37
2018-06-25T03:43:45.027Z,20.70
2018-06-25T03:46:14.688Z,19.60
2018-06-25T03:48:44.409Z,21.20
2018-06-25T03:51:14.012Z,18.70
2018-06-25T03:53:43.640Z,18.10
2018-06-25T03:56:13.266Z,19.30
2018-06-25T03:58:42.915Z,18.87
2018-06-25T04:01:12.622Z,17.30
2018-06-25T04:03:49.028Z,18.10
2018-06-25T04:06:18.722Z,21.97
2018-06-25T04:08:48.516Z,17.90
2018-06-25T04:11:18.159Z,19.93
2018-06-25T04:13:47.703Z,17.90
2018-06-25T04:16:17.596Z,20.57
2018-06-25T04:19:04.779Z,26.70
2018-06-25T04:21:36.077Z,23.83
2018-06-25T04:24:06.262Z,16.80
2018-06-25T04:26:35.977Z,24.73
2018-06-25T04:29:06.281Z,24.00
2018-06-25T04:31:35.936Z,21.73
2018-06-25T04:34:05.667Z,23.87
2018-06-25T04:36:35.463Z,22.80
2018-06-25T04:39:08.261Z,21.57
2018-06-25T04:41:37.926Z,18.43
2018-06-25T04:44:08.251Z,18.80
2018-06-25T04:46:37.966Z,21.83
2018-06-25T04:49:07.674Z,19.90
2018-06-25T04:51:37.315Z,19.80
2018-06-25T04:54:07.475Z,17.83
2018-06-25T04:56:37.171Z,18.33
2018-06-25T04:59:06.841Z,20.07
2018-06-25T05:01:36.830Z,17.80
2018-06-25T05:04:06.453Z,16.67
2018-06-25T05:06:36.308Z,16.77
2018-06-25T05:09:08.626Z,17.30
2018-06-25T05:11:38.312Z,16.20
2018-06-25T05:14:08.218Z,15.73
2018-06-25T05:16:37.891Z,18.53
2018-06-25T05:19:07.956Z,16.67
2018-06-25T05:21:37.660Z,16.80
2018-06-25T05:24:07.628Z,17.90
2018-06-25T05:26:37.364Z,16.83
2018-06-25T05:29:07.190Z,17.60
2018-06-25T05:31:37.072Z,13.77
2018-06-25T05:34:06.878Z,16.70
2018-06-25T05:36:36.952Z,15.20
2018-06-25T05:39:09.681Z,11.23
2018-06-25T05:41:41.147Z,13.53
2018-06-25T05:44:11.322Z,15.50
2018-06-25T05:46:41.059Z,20.83
2018-06-25T05:49:12.621Z,14.80
2018-06-25T05:51:42.400Z,24.27
2018-06-25T05:54:12.036Z,16.43
2018-06-25T05:56:43.672Z,11.37
2018-06-25T05:59:13.485Z,10.83
2018-06-25T06:01:43.274Z,12.30
2018-06-25T06:04:13.303Z,9.57
2018-06-25T06:06:43.157Z,7.87
2018-06-25T06:09:13.083Z,9.00
2018-06-25T06:11:43.161Z,9.50
2018-06-25T06:14:12.803Z,13.30
2018-06-25T06:16:42.482Z,10.23
2018-06-25T06:19:12.479Z,11.67
2018-06-25T06:21:42.262Z,9.63
2018-06-25T06:24:11.952Z,10.50
2018-06-25T06:26:41.802Z,8.53
2018-06-25T06:29:16.244Z,11.53
2018-06-25T06:31:46.058Z,13.00
2018-06-25T06:34:15.752Z,8.77
2018-06-25T06:36:45.350Z,7.53
2018-06-25T06:39:16.270Z,15.00
2018-06-25T06:41:46.545Z,13.77
2018-06-25T06:44:16.432Z,14.13
2018-06-25T06:46:55.868Z,11.83
2018-06-25T06:49:26.804Z,15.60
2018-06-25T06:51:57.277Z,9.00
2018-06-25T06:54:27.606Z,11.43
2018-06-25T06:56:57.453Z,11.70
2018-06-25T06:59:27.134Z,13.47
2018-06-25T07:01:56.773Z,12.10
2018-06-25T07:04:26.659Z,8.50
2018-06-25T07:06:56.320Z,9.57
2018-06-25T07:09:26.230Z,9.20
2018-06-25T07:11:56.054Z,7.73
2018-06-25T07:14:25.798Z,12.50
2018-06-25T07:16:55.420Z,9.40
2018-06-25T07:19:25.396Z,11.07
2018-06-25T07:21:55.077Z,8.93
2018-06-25T07:24:24.943Z,15.97
2018-06-25T07:26:54.760Z,14.07
2018-06-25T07:29:24.679Z,10.47
2018-06-25T07:31:54.472Z,6.73
2018-06-25T07:34:24.282Z,9.53
2018-06-25T07:36:53.961Z,10.00
2018-06-25T07:39:23.662Z,9.80
2018-06-25T07:41:53.766Z,8.37
2018-06-25T07:44:23.527Z,8.40
2018-06-25T07:47:00.360Z,14.40
2018-06-25T07:49:31.528Z,7.70
2018-06-25T07:52:02.386Z,9.37
2018-06-25T07:54:32.716Z,12.50
2018-06-25T07:57:02.751Z,11.77
2018-06-25T07:59:32.665Z,10.00
2018-06-25T08:02:03.620Z,7.40
2018-06-25T08:04:33.475Z,9.50
2018-06-25T08:07:04.264Z,6.70
2018-06-25T08:09:33.896Z,7.80
2018-06-25T08:12:03.643Z,12.50
2018-06-25T08:14:33.574Z,8.73
2018-06-25T08:17:03.309Z,6.33
2018-06-25T08:19:33.336Z,6.30
2018-06-25T08:22:02.956Z,9.60
2018-06-25T08:24:33.162Z,17.43
2018-06-25T08:27:03.393Z,5.87
2018-06-25T08:29:33.114Z,8.03
2018-06-25T08:32:02.695Z,4.90
2018-06-25T08:34:32.506Z,3.30
2018-06-25T08:37:02.239Z,6.13
2018-06-25T08:39:32.364Z,5.20
2018-06-25T08:42:02.144Z,5.70
2018-06-25T08:44:32.453Z,3.83
2018-06-25T08:47:02.159Z,6.60
2018-06-25T08:49:31.771Z,5.10
2018-06-25T08:52:02.458Z,6.90
2018-06-25T08:54:32.161Z,4.03
2018-06-25T08:57:05.846Z,5.97
2018-06-25T08:59:35.629Z,6.70
2018-06-25T09:02:05.569Z,4.13
2018-06-25T09:04:36.543Z,6.60
2018-06-25T09:07:06.104Z,6.23
2018-06-25T09:09:35.764Z,9.30
2018-06-25T09:12:05.454Z,5.47
2018-06-25T09:14:35.240Z,6.37
2018-06-25T09:17:05.555Z,9.63
2018-06-25T09:19:35.223Z,6.00
2018-06-25T09:22:05.016Z,9.83
2018-06-25T09:24:34.472Z,6.33
2018-06-25T09:27:04.107Z,5.20
2018-06-25T09:29:33.754Z,6.73
2018-06-25T09:32:03.592Z,8.93
2018-06-25T09:34:38.393Z,7.03
2018-06-25T09:37:08.270Z,6.43
2018-06-25T09:39:37.861Z,8.00
2018-06-25T09:42:07.669Z,6.73
2018-06-25T09:44:37.344Z,9.10
2018-06-25T09:47:12.406Z,8.20
2018-06-25T09:49:42.747Z,8.03
2018-06-25T09:52:13.019Z,8.13
2018-06-25T09:54:42.877Z,11.83
2018-06-25T09:57:13.864Z,8.00
2018-06-25T09:59:43.688Z,9.80
2018-06-25T10:02:13.617Z,8.20
2018-06-25T10:04:43.213Z,10.23
2018-06-25T10:07:13.081Z,12.53
2018-06-25T10:09:42.914Z,4.70
2018-06-25T10:12:18.834Z,7.50
2018-06-25T10:14:48.685Z,5.03
2018-06-25T10:17:22.325Z,7.23
2018-06-25T10:19:52.352Z,7.10
2018-06-25T10:22:26.348Z,5.77
2018-06-25T10:24:56.249Z,7.97
2018-06-25T10:28:03.344Z,10.37
2018-06-25T10:30:50.583Z,7.60
2018-06-25T10:33:24.049Z,5.43
2018-06-25T10:35:53.945Z,8.63
2018-06-25T10:38:25.023Z,6.13
2018-06-25T10:40:54.849Z,6.10
2018-06-25T10:43:24.677Z,7.03
2018-06-25T10:45:54.601Z,8.07
2018-06-25T10:48:25.063Z,5.67
2018-06-25T10:50:58.474Z,8.87
2018-06-25T10:53:32.184Z,8.93
2018-06-25T10:56:03.794Z,8.73
2018-06-25T10:58:34.330Z,9.50
2018-06-25T11:01:04.766Z,11.73
2018-06-25T11:03:35.605Z,8.40
2018-06-25T11:06:13.258Z,5.30
2018-06-25T11:08:42.974Z,8.93
2018-06-25T11:11:18.995Z,6.07
2018-06-25T11:13:48.750Z,8.07
2018-06-25T11:16:26.088Z,6.10
2018-06-25T11:19:08.318Z,9.47
2018-06-25T11:21:39.344Z,5.57
2018-06-25T11:24:09.143Z,8.63
2018-06-25T11:26:39.165Z,6.30
2018-06-25T11:31:41.707Z,9.00
2018-06-25T11:34:14.148Z,8.50
2018-06-25T11:36:43.976Z,5.93
2018-06-25T11:39:19.296Z,4.50
2018-06-25T11:41:50.092Z,4.47
2018-06-25T11:44:21.100Z,4.90
2018-06-25T11:46:50.936Z,4.77
2018-06-25T11:49:22.674Z,5.40
2018-06-25T11:51:52.401Z,4.60
2018-06-25T11:54:23.233Z,4.90
2018-06-25T11:56:52.854Z,4.23
2018-06-25T11:59:22.520Z,7.83
2018-06-25T12:01:53.608Z,9.20
2018-06-25T12:04:23.203Z,9.63
2018-06-25T12:06:58.702Z,8.20
2018-06-25T12:09:28.901Z,8.93
2018-06-25T12:11:58.556Z,7.87
2018-06-25T12:14:28.403Z,8.13
2018-06-25T12:16:58.212Z,8.07
2018-06-25T12:19:27.918Z,12.00
2018-06-25T12:21:57.517Z,12.10
2018-06-25T12:24:27.155Z,7.50
2018-06-25T12:26:57.779Z,6.50
2018-06-25T12:29:27.356Z,6.33
2018-06-25T12:31:57.110Z,6.00
2018-06-25T12:34:26.706Z,8.30
2018-06-25T12:36:56.408Z,5.77
2018-06-25T12:39:26.440Z,6.53
2018-06-25T12:41:56.062Z,5.90
2018-06-25T12:44:26.056Z,8.30
2018-06-25T12:46:55.715Z,5.00
2018-06-25T12:49:25.509Z,5.40
2018-06-25T12:51:55.084Z,4.50
2018-06-25T12:54:24.848Z,6.40
2018-06-25T12:56:54.998Z,4.93
2018-06-25T12:59:24.944Z,4.73
2018-06-25T13:01:54.607Z,4.83
2018-06-25T13:04:24.324Z,4.67
2018-06-25T13:06:54.168Z,3.47
2018-06-25T13:09:23.955Z,4.83
2018-06-25T13:11:53.575Z,4.77
2018-06-25T13:14:23.339Z,5.77
2018-06-25T13:16:53.179Z,6.13
2018-06-25T13:19:23.139Z,5.93
2018-06-25T13:21:52.870Z,6.80
2018-06-25T13:24:22.624Z,6.23
2018-06-25T13:26:52.359Z,9.50
2018-06-25T13:29:22.115Z,5.63
2018-06-25T13:31:51.761Z,6.50
2018-06-25T13:34:21.476Z,7.87
2018-06-25T13:36:53.659Z,5.40
2018-06-25T13:39:23.398Z,8.13
2018-06-25T13:41:53.067Z,7.23
2018-06-25T13:44:22.702Z,6.53
2018-06-25T13:46:52.290Z,6.00
2018-06-25T13:49:22.049Z,8.20
2018-06-25T13:51:51.893Z,4.60
2018-06-25T13:54:22.045Z,6.23
2018-06-25T13:56:52.951Z,5.23
2018-06-25T13:59:22.586Z,5.40
2018-06-25T14:01:52.304Z,9.50
2018-06-25T14:04:22.039Z,5.60
2018-06-25T14:06:51.816Z,7.10
2018-06-25T14:09:21.524Z,6.03
2018-06-25T14:11:51.389Z,6.13
2018-06-25T14:14:21.149Z,6.17
2018-06-25T14:16:51.918Z,11.40
2018-06-25T14:19:21.488Z,5.87
2018-06-25T14:21:52.214Z,6.43
2018-06-25T14:24:26.946Z,8.63
2018-06-25T14:27:01.778Z,5.90
2018-06-25T14:29:31.383Z,5.90
2018-06-25T14:32:06.254Z,9.33
2018-06-25T14:34:35.958Z,8.17
2018-06-25T14:37:06.247Z,5.77
2018-06-25T14:39:35.889Z,9.23
2018-06-25T14:42:05.663Z,7.60
2018-06-25T14:44:35.309Z,5.97
2018-06-25T14:47:04.985Z,4.63
2018-06-25T14:49:34.709Z,4.80
2018-06-25T14:52:04.315Z,5.03
2018-06-25T14:54:33.909Z,4.53
2018-06-25T14:57:03.616Z,4.10
2018-06-25T14:59:33.316Z,5.70
2018-06-25T15:02:03.032Z,4.13
2018-06-25T15:04:32.686Z,4.17
2018-06-25T15:07:02.371Z,5.80
2018-06-25T15:09:32.072Z,4.97
2018-06-25T15:12:01.726Z,4.40
2018-06-25T15:14:31.289Z,6.97
2018-06-25T15:17:01.148Z,4.80
2018-06-25T15:19:30.815Z,4.73
2018-06-25T15:22:00.370Z,5.27
2018-06-25T15:24:31.078Z,4.93
2018-06-25T15:27:00.859Z,5.30
2018-06-25T15:29:30.572Z,7.17
2018-06-25T15:32:00.275Z,5.97
2018-06-25T15:34:29.959Z,5.60
2018-06-25T15:37:00.564Z,4.90
2018-06-25T15:39:30.377Z,4.70
2018-06-25T15:41:59.981Z,4.83
2018-06-25T15:44:29.830Z,4.83
2018-06-25T15:46:59.546Z,4.30
2018-06-25T15:49:29.224Z,5.97
2018-06-25T15:51:58.785Z,5.10
2018-06-25T15:54:28.424Z,6.50
2018-06-25T15:56:58.195Z,3.90
2018-06-25T15:59:27.998Z,6.30
2018-06-25T16:01:57.778Z,4.67
2018-06-25T16:04:27.454Z,5.73
2018-06-25T16:06:57.536Z,4.20
2018-06-25T16:09:27.616Z,4.90
2018-06-25T16:11:59.794Z,4.70
2018-06-25T16:14:32.968Z,4.77
2018-06-25T16:17:05.906Z,4.40
2018-06-25T16:19:35.948Z,4.23
2018-06-25T16:22:07.409Z,4.80
2018-06-25T16:24:37.057Z,5.00
2018-06-25T16:27:06.787Z,4.90
2018-06-25T16:29:36.512Z,5.70
2018-06-25T16:32:06.309Z,4.83
2018-06-25T16:34:35.975Z,3.63
2018-06-25T16:37:05.795Z,3.77
2018-06-25T16:39:35.535Z,4.13
2018-06-25T16:42:05.170Z,4.97
2018-06-25T16:44:34.805Z,4.57
2018-06-25T16:47:07.272Z,3.93
2018-06-25T16:49:37.027Z,4.97
2018-06-25T16:52:06.659Z,8.53
2018-06-25T16:54:36.370Z,5.80
2018-06-25T16:57:06.085Z,4.87
2018-06-25T16:59:35.865Z,6.33
2018-06-25T17:02:05.810Z,5.10
2018-06-25T17:04:35.628Z,5.20
2018-06-25T17:07:05.818Z,3.63
2018-06-25T17:09:35.602Z,5.33
2018-06-25T17:12:05.153Z,4.57
2018-06-25T17:14:34.724Z,5.17
2018-06-25T17:17:04.602Z,4.63
2018-06-25T17:19:34.180Z,3.80
2018-06-25T17:22:05.252Z,4.10
2018-06-25T17:24:35.183Z,5.07
2018-06-25T17:27:07.606Z,7.13
2018-06-25T17:29:37.379Z,4.37
2018-06-25T17:32:07.081Z,4.80
2018-06-25T17:34:36.886Z,6.00
2018-06-25T17:37:06.893Z,6.30
2018-06-25T17:39:36.570Z,4.10
2018-06-25T17:42:06.367Z,6.93
2018-06-25T17:44:35.989Z,4.10
2018-06-25T17:47:05.712Z,6.20
2018-06-25T17:49:35.325Z,4.87
2018-06-25T17:52:05.137Z,4.27
2018-06-25T17:54:34.860Z,6.73
2018-06-25T17:57:04.551Z,8.50
2018-06-25T17:59:34.269Z,6.37
2018-06-25T18:02:03.976Z,4.60
2018-06-25T18:04:33.656Z,6.70
2018-06-25T18:07:03.214Z,4.57
2018-06-25T18:09:32.990Z,5.20
2018-06-25T18:12:02.698Z,5.50
2018-06-25T18:14:32.344Z,7.00
2018-06-25T18:17:02.207Z,8.23
2018-06-25T18:19:32.013Z,6.70
2018-06-25T18:22:04.818Z,4.77
2018-06-25T18:24:35.347Z,8.83
2018-06-25T18:27:07.411Z,6.27
2018-06-25T18:29:37.211Z,4.90
2018-06-25T18:32:06.869Z,5.73
2018-06-25T18:34:36.680Z,4.97
2018-06-25T18:37:06.410Z,6.70
2018-06-25T18:39:36.172Z,7.00
2018-06-25T18:42:05.850Z,4.80
2018-06-25T18:44:35.669Z,4.30
2018-06-25T18:47:05.868Z,5.03
2018-06-25T18:49:35.497Z,6.77
2018-06-25T18:52:05.230Z,6.60
2018-06-25T18:54:35.122Z,6.10
2018-06-25T18:57:04.875Z,8.07
2018-06-25T18:59:34.657Z,5.23
2018-06-25T19:02:04.429Z,6.97
2018-06-25T19:04:34.141Z,5.20
2018-06-25T19:07:03.939Z,7.10
2018-06-25T19:09:33.696Z,6.37
2018-06-25T19:12:03.329Z,5.63
2018-06-25T19:14:32.874Z,6.17
2018-06-25T19:17:02.984Z,6.00
2018-06-25T19:19:32.702Z,6.83
2018-06-25T19:22:02.301Z,5.93
2018-06-25T19:24:31.878Z,7.63
2018-06-25T19:27:01.518Z,6.77
2018-06-25T19:29:31.170Z,6.80
2018-06-25T19:32:00.791Z,6.13
2018-06-25T19:34:30.439Z,5.43
2018-06-25T19:37:00.040Z,5.50
2018-06-25T19:39:29.662Z,8.63
2018-06-25T19:41:59.257Z,13.00
2018-06-25T19:44:28.838Z,6.57
2018-06-25T19:46:58.705Z,8.50
2018-06-25T19:49:28.545Z,5.73
2018-06-25T19:51:58.182Z,5.60
2018-06-25T19:54:27.866Z,6.17
2018-06-25T19:56:57.084Z,5.20
2018-06-25T19:59:26.711Z,6.03
2018-06-25T20:01:56.321Z,6.10
2018-06-25T20:04:25.985Z,7.27
2018-06-25T20:06:55.897Z,6.87
2018-06-25T20:09:25.706Z,6.43
2018-06-25T20:11:55.518Z,6.87
2018-06-25T20:14:25.162Z,7.43
2018-06-25T20:16:54.781Z,8.93
2018-06-25T20:19:24.688Z,8.23
2018-06-25T20:21:54.262Z,10.80
2018-06-25T20:24:23.972Z,10.53
2018-06-25T20:26:53.781Z,7.43
2018-06-25T20:29:23.497Z,7.60
2018-06-25T20:31:53.196Z,8.60
2018-06-25T20:34:23.170Z,11.17
2018-06-25T20:36:52.991Z,10.13
2018-06-25T20:39:22.761Z,11.07
2018-06-25T20:41:52.418Z,6.80
2018-06-25T20:44:22.075Z,8.40
2018-06-25T20:46:51.741Z,11.57
2018-06-25T20:49:21.428Z,7.60
2018-06-25T20:51:50.990Z,7.40
2018-06-25T20:54:21.689Z,9.10
2018-06-25T20:56:52.120Z,8.70
2018-06-25T20:59:21.668Z,6.20
2018-06-25T21:01:51.342Z,7.00
2018-06-25T21:04:21.248Z,7.60
2018-06-25T21:06:50.865Z,7.50
2018-06-25T21:09:20.519Z,6.83
2018-06-25T21:11:50.080Z,14.80
2018-06-25T21:14:19.715Z,7.87
2018-06-25T21:16:49.349Z,7.30
2018-06-25T21:19:18.965Z,10.00
2018-06-25T21:21:48.529Z,9.33
2018-06-25T21:24:19.107Z,9.73
2018-06-25T21:26:48.684Z,12.43
2018-06-25T21:29:18.281Z,7.50
2018-06-25T21:31:48.029Z,7.17
2018-06-25T21:34:17.794Z,8.00
2018-06-25T21:36:47.421Z,10.57
2018-06-25T21:39:17.258Z,7.00
2018-06-25T21:41:46.774Z,6.33
2018-06-25T21:44:16.371Z,5.50
2018-06-25T21:46:46.171Z,6.80
2018-06-25T21:49:15.770Z,6.10
2018-06-25T21:51:45.450Z,7.60
2018-06-25T21:54:15.129Z,7.17
2018-06-25T21:56:45.692Z,5.33
2018-06-25T21:59:15.316Z,6.40
2018-06-25T22:01:49.405Z,6.80
2018-06-25T22:04:19.342Z,7.30
2018-06-25T22:06:48.852Z,6.63
2018-06-25T22:09:19.420Z,6.73
2018-06-25T22:11:49.704Z,6.13
2018-06-25T22:14:19.424Z,7.20
2018-06-25T22:16:49.023Z,6.13
2018-06-25T22:19:18.685Z,7.50
2018-06-25T22:21:48.164Z,6.40
2018-06-25T22:24:17.863Z,6.50
2018-06-25T22:26:47.433Z,5.60
2018-06-25T22:29:17.098Z,5.80
2018-06-25T22:31:46.787Z,8.57
2018-06-25T22:34:16.379Z,6.00
2018-06-25T22:36:45.909Z,8.03
2018-06-25T22:39:15.630Z,5.70
2018-06-25T22:41:45.149Z,6.17
2018-06-25T22:44:15.041Z,6.17
2018-06-25T22:46:44.513Z,4.70
2018-06-25T22:49:15.521Z,6.27
2018-06-25T22:51:45.060Z,5.53
2018-06-25T22:54:14.899Z,5.20
2018-06-25T22:56:49.052Z,10.30
2018-06-25T22:59:18.560Z,5.23
2018-06-25T23:01:52.094Z,5.17
2018-06-25T23:04:21.654Z,5.13
2018-06-25T23:06:51.148Z,4.93
2018-06-25T23:09:20.710Z,6.17
2018-06-25T23:11:51.121Z,5.43
2018-06-25T23:14:20.618Z,5.13
2018-06-25T23:16:50.039Z,5.30
2018-06-25T23:19:20.744Z,4.97
2018-06-25T23:21:50.329Z,4.73
2018-06-25T23:24:19.821Z,5.10
2018-06-25T23:26:50.227Z,7.80
2018-06-25T23:29:20.195Z,5.87
2018-06-25T23:31:49.622Z,5.87
2018-06-25T23:34:19.133Z,5.03
2018-06-25T23:36:49.445Z,5.10
2018-06-25T23:39:19.914Z,7.43
2018-06-25T23:41:50.424Z,5.10
2018-06-25T23:44:19.854Z,5.43
2018-06-25T23:46:50.251Z,5.07
2018-06-25T23:49:19.992Z,6.73
2018-06-25T23:51:50.686Z,5.20
2018-06-25T23:54:21.366Z,5.53
2018-06-25T23:56:51.880Z,4.80
2018-06-25T23:59:21.349Z,9.13
